Time;durP1;ratioP1;P1;durP2;ratioP2;P2;SDS_P1;SDS_P2;PMS_P1;PMS_P2;Temp;Humidity;BMP_temperature;BMP_pressure;BME280_temperature;BME280_humidity;BME280_pressure;Samples;Min_cycle;Max_cycle;Signal;HPM_P1;HPM_P2
2023/01/13 00:01:09;;;;;;;;;;;;;;;;;;4899207;29;19919;-81
2023/01/13 00:03:34;;;;;;;;;;;;;;;;;;4899107;29;19983;-80
2023/01/13 00:05:59;;;;;;;;;;;;;;;;;;4899402;29;20029;-81
2023/01/13 00:08:25;;;;;;;;;;;;;;;;;;4894635;29;19911;-81
2023/01/13 00:10:50;;;;;;;;;;;;;;;;;;4894101;29;19963;-81
2023/01/13 00:13:15;;;;;;;;;;;;;;;;;;4899530;29;19987;-82
2023/01/13 00:15:41;;;;;;;;;;;;;;;;;;4898811;29;19915;-81
2023/01/13 00:18:06;;;;;;;;;;;;;;;;;;4899164;29;20371;-81
2023/01/13 00:20:31;;;;;;;;;;;;;;;;;;4897395;29;19915;-81
2023/01/13 00:22:58;;;;;;;;;;;;;;;;;;4897448;29;19959;-81
2023/01/13 00:25:24;;;;;;;;;;;;;;;;;;4897436;29;19957;-81
2023/01/13 00:27:49;;;;;;;;;;;;;;;;;;4904813;29;19950;-81
2023/01/13 00:30:14;;;;;;;;;;;;;;;;;;4902635;29;19963;-81
2023/01/13 00:32:40;;;;;;;;;;;;;;;;;;4897280;29;19912;-81
2023/01/13 00:35:05;;;;;;;;;;;;;;;;;;4898308;29;19938;-81
2023/01/13 00:37:30;;;;;;;;;;;;;;;;;;4898035;29;20355;-81
2023/01/13 00:39:56;;;;;;;;;;;;;;;;;;4898791;29;19923;-80
2023/01/13 00:45:06;;;;;;;;;;;;;;;;;;4894930;29;19926;-79
2023/01/13 00:47:31;;;;;;;;;;;;;;;;;;4898129;29;20298;-80
2023/01/13 00:49:57;;;;;;;;;;;;;;;;;;4898362;29;19919;-81
2023/01/13 00:52:22;;;;;;;;;;;;;;;;;;4899830;29;19990;-81
2023/01/13 00:54:47;;;;;;;;;;;;;;;;;;4898847;29;19915;-81
2023/01/13 00:57:14;;;;;;;;;;;;;;;;;;4898410;29;19911;-82
2023/01/13 00:59:39;;;;;;;;;;;;;;;;;;4899006;29;19919;-80
2023/01/13 01:02:04;;;;;;;;;;;;;;;;;;4898127;29;19917;-81
2023/01/13 01:04:30;;;;;;;;;;;;;;;;;;4897256;29;19919;-81
2023/01/13 01:06:55;;;;;;;;;;;;;;;;;;4897813;29;19961;-81
2023/01/13 01:09:20;;;;;;;;;;;;;;;;;;4896881;29;19921;-81
2023/01/13 01:11:46;;;;;;;;;;;;;;;;;;4898040;29;19975;-81
2023/01/13 01:14:11;;;;;;;;;;;;;;;;;;4896470;29;20371;-81
2023/01/13 01:16:36;;;;;;;;;;;;;;;;;;4897686;29;20010;-80
2023/01/13 01:19:02;;;;;;;;;;;;;;;;;;4896680;29;19915;-81
2023/01/13 01:21:28;;;;;;;;;;;;;;;;;;4896111;29;19934;-80
2023/01/13 01:23:53;;;;;;;;;;;;;;;;;;4897460;29;19967;-82
2023/01/13 01:26:18;;;;;;;;;;;;;;;;;;4897554;29;19922;-80
2023/01/13 01:28:44;;;;;;;;;;;;;;;;;;4897154;29;20041;-80
2023/01/13 01:31:09;;;;;;;;;;;;;;;;;;4896548;29;19922;-81
2023/01/13 01:33:34;;;;;;;;;;;;;;;;;;4897279;29;19915;-82
2023/01/13 01:36:00;;;;;;;;;;;;;;;;;;4896180;29;20374;-82
2023/01/13 01:38:25;;;;;;;;;;;;;;;;;;4895787;29;19915;-81
2023/01/13 01:40:50;;;;;;;;;;;;;;;;;;4897450;29;20032;-82
2023/01/13 01:46:00;;;;;;;;;;;;;;;;;;4919424;29;20037;-81
2023/01/13 01:48:25;;;;;;;;;;;;;;;;;;4893276;29;19949;-81
2023/01/13 01:50:51;;;;;;;;;;;;;;;;;;4897725;29;19915;-81
2023/01/13 01:53:16;;;;;;;;;;;;;;;;;;4897567;29;21539;-82
2023/01/13 01:55:42;;;;;;;;;;;;;;;;;;4897072;29;19915;-81
2023/01/13 01:58:07;;;;;;;;;;;;;;;;;;4896349;29;19911;-81
2023/01/13 02:00:32;;;;;;;;;;;;;;;;;;4897187;29;19915;-82
2023/01/13 02:02:58;;;;;;;;;;;;;;;;;;4927798;29;20259;-81
2023/01/13 02:05:23;;;;;;;;;;;;;;;;;;4895708;29;19919;-81
2023/01/13 02:07:48;;;;;;;;;;;;;;;;;;4896050;29;20399;-81
2023/01/13 02:10:14;;;;;;;;;;;;;;;;;;4897068;29;20383;-81
2023/01/13 02:12:39;;;;;;;;;;;;;;;;;;4899356;29;20079;-81
2023/01/13 02:15:04;;;;;;;;;;;;;;;;;;4927284;29;20382;-81
2023/01/13 02:17:30;;;;;;;;;;;;;;;;;;4896580;29;20379;-80
2023/01/13 02:19:55;;;;;;;;;;;;;;;;;;4896564;29;19915;-81
2023/01/13 02:22:20;;;;;;;;;;;;;;;;;;4896729;29;19953;-81
2023/01/13 02:24:55;;;;;;;;;;;;;;;;;;4896488;29;19941;-81
2023/01/13 02:27:20;;;;;;;;;;;;;;;;;;4896611;29;19923;-81
2023/01/13 02:32:30;;;;;;;;;;;;;;;;;;4926538;29;19969;-81
2023/01/13 02:34:55;;;;;;;;;;;;;;;;;;4896472;29;19955;-80
2023/01/13 02:37:20;;;;;;;;;;;;;;;;;;4896591;29;19938;-81
2023/01/13 02:39:46;;;;;;;;;;;;;;;;;;4895615;29;19934;-81
2023/01/13 02:44:55;;;;;;;;;;;;;;;;;;4896345;29;20338;-81
2023/01/13 02:47:20;;;;;;;;;;;;;;;;;;4895533;29;19915;-81
2023/01/13 02:49:46;;;;;;;;;;;;;;;;;;4895669;29;19922;-81
2023/01/13 02:52:11;;;;;;;;;;;;;;;;;;4896628;29;19960;-81
2023/01/13 02:54:36;;;;;;;;;;;;;;;;;;4897672;29;19925;-80
2023/01/13 02:57:02;;;;;;;;;;;;;;;;;;4897367;29;19912;-80
2023/01/13 02:59:27;;;;;;;;;;;;;;;;;;4898208;29;20382;-80
2023/01/13 03:01:52;;;;;;;;;;;;;;;;;;4896887;29;19978;-81
2023/01/13 03:04:18;;;;;;;;;;;;;;;;;;4896893;29;19919;-81
2023/01/13 03:06:43;;;;;;;;;;;;;;;;;;4897837;29;19926;-82
2023/01/13 03:09:08;;;;;;;;;;;;;;;;;;4896495;29;19923;-81
2023/01/13 03:11:34;;;;;;;;;;;;;;;;;;4897411;29;19930;-80
2023/01/13 03:14:00;;;;;;;;;;;;;;;;;;4896119;29;20062;-80
2023/01/13 03:16:25;;;;;;;;;;;;;;;;;;4926304;29;19934;-81
2023/01/13 03:18:51;;;;;;;;;;;;;;;;;;4895198;29;19915;-81
2023/01/13 03:21:16;;;;;;;;;;;;;;;;;;4896156;29;20443;-81
2023/01/13 03:24:07;;;;;;;;;;;;;;;;;;4896068;29;20246;-82
2023/01/13 03:26:32;;;;;;;;;;;;;;;;;;4894865;29;19916;-81
2023/01/13 03:28:58;;;;;;;;;;;;;;;;;;4879049;29;20002;-81
2023/01/13 03:31:23;;;;;;;;;;;;;;;;;;4894767;29;20129;-82
2023/01/13 03:33:48;;;;;;;;;;;;;;;;;;4895748;29;19915;-82
2023/01/13 03:36:14;;;;;;;;;;;;;;;;;;4895027;29;19915;-82
2023/01/13 03:38:39;;;;;;;;;;;;;;;;;;4897897;29;19915;-81
2023/01/13 03:41:04;;;;;;;;;;;;;;;;;;4896654;29;20319;-81
2023/01/13 03:46:14;;;;;;;;;;;;;;;;;;4896668;29;19924;-81
2023/01/13 03:48:39;;;;;;;;;;;;;;;;;;4895586;29;19915;-81
2023/01/13 03:51:05;;;;;;;;;;;;;;;;;;4895923;29;19923;-81
2023/01/13 03:53:30;;;;;;;;;;;;;;;;;;4895408;29;19918;-81
2023/01/13 03:55:55;;;;;;;;;;;;;;;;;;4894717;29;19922;-82
2023/01/13 03:58:21;;;;;;;;;;;;;;;;;;4895320;29;19911;-82
2023/01/13 04:00:46;;;;;;;;;;;;;;;;;;4896674;29;19982;-82
2023/01/13 04:03:11;;;;;;;;;;;;;;;;;;4899510;29;20351;-82
2023/01/13 04:05:37;;;;;;;;;;;;;;;;;;4899578;29;19923;-82
2023/01/13 04:08:02;;;;;;;;;;;;;;;;;;4899595;29;19923;-82
2023/01/13 04:10:31;;;;;;;;;;;;;;;;;;4903714;29;19915;-82
2023/01/13 04:12:59;;;;;;;;;;;;;;;;;;4897586;29;19931;-82
2023/01/13 04:15:26;;;;;;;;;;;;;;;;;;4899726;29;20407;-82
2023/01/13 04:17:52;;;;;;;;;;;;;;;;;;4898748;29;19918;-82
2023/01/13 04:20:17;;;;;;;;;;;;;;;;;;4899235;29;19919;-81
2023/01/13 04:22:42;;;;;;;;;;;;;;;;;;4896699;29;19934;-82
2023/01/13 04:25:08;;;;;;;;;;;;;;;;;;4899504;29;20005;-81
2023/01/13 04:27:33;;;;;;;;;;;;;;;;;;4882642;29;20268;-81
2023/01/13 04:29:58;;;;;;;;;;;;;;;;;;4899251;29;20065;-81
2023/01/13 04:32:23;;;;;;;;;;;;;;;;;;4895764;29;19923;-81
2023/01/13 04:34:49;;;;;;;;;;;;;;;;;;4899259;29;19986;-81
2023/01/13 04:37:14;;;;;;;;;;;;;;;;;;4899232;29;19946;-80
2023/01/13 04:39:39;;;;;;;;;;;;;;;;;;4899265;29;20306;-80
2023/01/13 04:42:05;;;;;;;;;;;;;;;;;;4898503;29;19911;-81
2023/01/13 04:44:34;;;;;;;;;;;;;;;;;;4897670;29;19919;-82
2023/01/13 04:46:59;;;;;;;;;;;;;;;;;;4898366;29;20107;-81
2023/01/13 04:49:24;;;;;;;;;;;;;;;;;;4898858;29;20367;-81
2023/01/13 04:51:50;;;;;;;;;;;;;;;;;;4898459;29;19911;-81
2023/01/13 04:54:15;;;;;;;;;;;;;;;;;;4897927;29;19915;-81
2023/01/13 04:56:40;;;;;;;;;;;;;;;;;;4895140;29;19911;-80
2023/01/13 04:59:06;;;;;;;;;;;;;;;;;;4894262;29;20306;-80
2023/01/13 05:01:31;;;;;;;;;;;;;;;;;;4899251;29;20287;-80
2023/01/13 05:03:56;;;;;;;;;;;;;;;;;;4899562;29;19986;-82
2023/01/13 05:06:22;;;;;;;;;;;;;;;;;;4898016;29;20045;-80
2023/01/13 05:08:47;;;;;;;;;;;;;;;;;;4896328;29;19938;-82
2023/01/13 05:16:59;;;;;;;;;;;;;;;;;;4898175;29;19916;-81
2023/01/13 05:19:24;;;;;;;;;;;;;;;;;;4898706;29;19916;-80
2023/01/13 05:27:17;;;;;;;;;;;;;;;;;;4918835;29;20008;-81
2023/01/13 05:29:43;;;;;;;;;;;;;;;;;;4897620;29;20398;-81
2023/01/13 05:32:08;;;;;;;;;;;;;;;;;;4898911;29;19922;-80
2023/01/13 05:34:33;;;;;;;;;;;;;;;;;;4899093;29;19919;-81
2023/01/13 05:36:58;;;;;;;;;;;;;;;;;;4897785;29;19919;-80
2023/01/13 05:39:24;;;;;;;;;;;;;;;;;;4899204;29;19911;-80
2023/01/13 05:44:33;;;;;;;;;;;;;;;;;;4898475;29;19977;-82
2023/01/13 05:46:59;;;;;;;;;;;;;;;;;;4896901;29;19942;-82
2023/01/13 05:49:24;;;;;;;;;;;;;;;;;;4898014;29;19915;-81
2023/01/13 05:51:49;;;;;;;;;;;;;;;;;;4897787;29;19915;-82
2023/01/13 05:54:15;;;;;;;;;;;;;;;;;;4921223;29;19916;-81
2023/01/13 05:56:40;;;;;;;;;;;;;;;;;;4897932;29;20307;-81
2023/01/13 05:59:06;;;;;;;;;;;;;;;;;;4896359;29;19955;-81
2023/01/13 06:01:31;;;;;;;;;;;;;;;;;;4897134;29;19911;-82
2023/01/13 06:03:56;;;;;;;;;;;;;;;;;;4896575;29;19926;-79
2023/01/13 06:06:22;;;;;;;;;;;;;;;;;;4897525;29;20006;-81
2023/01/13 06:08:47;;;;;;;;;;;;;;;;;;4896596;29;19916;-81
2023/01/13 06:11:12;;;;;;;;;;;;;;;;;;4895563;29;19911;-81
2023/01/13 06:13:38;;;;;;;;;;;;;;;;;;4895260;29;19922;-81
2023/01/13 06:16:03;;;;;;;;;;;;;;;;;;4897003;29;19918;-81
2023/01/13 06:18:28;;;;;;;;;;;;;;;;;;4895949;29;19926;-81
2023/01/13 06:20:54;;;;;;;;;;;;;;;;;;4896993;29;19911;-82
2023/01/13 06:23:19;;;;;;;;;;;;;;;;;;4895650;29;19920;-80
2023/01/13 06:25:44;;;;;;;;;;;;;;;;;;4895503;29;19912;-80
2023/01/13 06:28:10;;;;;;;;;;;;;;;;;;4895229;29;20429;-81
2023/01/13 06:30:35;;;;;;;;;;;;;;;;;;4896539;29;20501;-81
2023/01/13 06:33:01;;;;;;;;;;;;;;;;;;4896595;29;19915;-81
2023/01/13 06:35:26;;;;;;;;;;;;;;;;;;4895886;29;19992;-81
2023/01/13 06:37:51;;;;;;;;;;;;;;;;;;4897025;29;19915;-81
2023/01/13 06:40:17;;;;;;;;;;;;;;;;;;4896701;29;19911;-81
2023/01/13 06:45:26;;;;;;;;;;;;;;;;;;4896139;29;19923;-81
2023/01/13 06:47:53;;;;;;;;;;;;;;;;;;4896536;29;19911;-81
2023/01/13 06:50:18;;;;;;;;;;;;;;;;;;4902010;29;19915;-79
2023/01/13 06:52:44;;;;;;;;;;;;;;;;;;4904094;29;19911;-81
2023/01/13 06:55:09;;;;;;;;;;;;;;;;;;4912328;29;20303;-80
2023/01/13 06:57:34;;;;;;;;;;;;;;;;;;4897706;29;19911;-80
2023/01/13 07:00:00;;;;;;;;;;;;;;;;;;4896680;29;20023;-79
2023/01/13 07:02:27;;;;;;;;;;;;;;;;;;4897476;29;19911;-82
2023/01/13 07:04:52;;;;;;;;;;;;;;;;;;4896732;29;19974;-82
2023/01/13 07:07:17;;;;;;;;;;;;;;;;;;4896918;29;19958;-83
2023/01/13 07:09:43;;;;;;;;;;;;;;;;;;4896830;29;20099;-82
2023/01/13 07:12:08;;;;;;;;;;;;;;;;;;4896738;29;19923;-81
2023/01/13 07:17:24;;;;;;;;;;;;;;;;;;4891607;29;19915;-82
2023/01/13 07:19:49;;;;;;;;;;;;;;;;;;4892098;29;19923;-82
2023/01/13 07:22:14;;;;;;;;;;;;;;;;;;4897188;29;19919;-81
2023/01/13 07:25:04;;;;;;;;;;;;;;;;;;4896036;29;20483;-82
2023/01/13 07:27:29;;;;;;;;;;;;;;;;;;4896795;29;20017;-80
2023/01/13 07:29:55;;;;;;;;;;;;;;;;;;4896641;29;20381;-81
2023/01/13 07:32:20;;;;;;;;;;;;;;;;;;4896635;29;19915;-81
2023/01/13 07:34:45;;;;;;;;;;;;;;;;;;4897533;29;19916;-81
2023/01/13 07:37:11;;;;;;;;;;;;;;;;;;4900388;29;20010;-81
2023/01/13 07:39:36;;;;;;;;;;;;;;;;;;4899060;29;19921;-81
2023/01/13 07:44:46;;;;;;;;;;;;;;;;;;4900659;29;19926;-82
2023/01/13 07:47:11;;;;;;;;;;;;;;;;;;4900203;29;19911;-82
2023/01/13 07:49:36;;;;;;;;;;;;;;;;;;4901027;29;19919;-80
2023/01/13 07:52:02;;;;;;;;;;;;;;;;;;4900080;29;20363;-81
2023/01/13 07:54:27;;;;;;;;;;;;;;;;;;4900545;29;19915;-82
2023/01/13 07:56:56;;;;;;;;;;;;;;;;;;4899000;29;19918;-81
2023/01/13 07:59:21;;;;;;;;;;;;;;;;;;4898790;29;20365;-82
2023/01/13 08:01:46;;;;;;;;;;;;;;;;;;4898571;29;19990;-81
2023/01/13 08:04:12;;;;;;;;;;;;;;;;;;4920826;29;19923;-83
2023/01/13 08:06:40;;;;;;;;;;;;;;;;;;4924010;29;19919;-82
2023/01/13 08:09:09;;;;;;;;;;;;;;;;;;4899455;29;20789;-83
2023/01/13 08:11:34;;;;;;;;;;;;;;;;;;4903324;29;19927;-81
2023/01/13 08:13:59;;;;;;;;;;;;;;;;;;4899993;29;20327;-82
2023/01/13 08:16:25;;;;;;;;;;;;;;;;;;4900097;29;20119;-82
2023/01/13 08:18:50;;;;;;;;;;;;;;;;;;4930382;29;19915;-81
2023/01/13 08:21:15;;;;;;;;;;;;;;;;;;4899592;29;19918;-82
2023/01/13 08:23:41;;;;;;;;;;;;;;;;;;4898055;29;19947;-82
2023/01/13 08:26:06;;;;;;;;;;;;;;;;;;4900557;29;19913;-81
2023/01/13 08:28:31;;;;;;;;;;;;;;;;;;4899386;29;19915;-81
2023/01/13 08:30:57;;;;;;;;;;;;;;;;;;4898565;29;20020;-82
2023/01/13 08:33:22;;;;;;;;;;;;;;;;;;4898294;29;19922;-81
2023/01/13 08:35:51;;;;;;;;;;;;;;;;;;4898676;29;19911;-82
2023/01/13 08:38:16;;;;;;;;;;;;;;;;;;4908447;29;19922;-81
2023/01/13 08:40:42;;;;;;;;;;;;;;;;;;4899168;29;20374;-82
2023/01/13 08:43:07;;;;;;;;;;;;;;;;;;4898846;29;19915;-82
2023/01/13 08:45:33;;;;;;;;;;;;;;;;;;4897597;29;20443;-81
2023/01/13 08:47:58;;;;;;;;;;;;;;;;;;4897983;29;20027;-81
2023/01/13 08:50:24;;;;;;;;;;;;;;;;;;4898588;29;20367;-81
2023/01/13 08:52:49;;;;;;;;;;;;;;;;;;4899122;29;19927;-81
2023/01/13 08:55:14;;;;;;;;;;;;;;;;;;4898002;29;19916;-82
2023/01/13 08:57:40;;;;;;;;;;;;;;;;;;4899160;29;19916;-82
2023/01/13 09:00:05;;;;;;;;;;;;;;;;;;4912600;29;19934;-82
2023/01/13 09:02:30;;;;;;;;;;;;;;;;;;4898982;29;19918;-81
2023/01/13 09:04:56;;;;;;;;;;;;;;;;;;4896999;29;20383;-81
2023/01/13 09:07:21;;;;;;;;;;;;;;;;;;4898713;29;19915;-80
2023/01/13 09:09:46;;;;;;;;;;;;;;;;;;4896975;29;20374;-82
2023/01/13 09:14:56;;;;;;;;;;;;;;;;;;4898214;29;19938;-82
2023/01/13 09:17:24;;;;;;;;;;;;;;;;;;4898691;29;19911;-82
2023/01/13 09:19:50;;;;;;;;;;;;;;;;;;4898474;29;19950;-81
2023/01/13 09:22:15;;;;;;;;;;;;;;;;;;4898089;29;20010;-82
2023/01/13 09:24:40;;;;;;;;;;;;;;;;;;4898057;29;19919;-82
2023/01/13 09:27:05;;;;;;;;;;;;;;;;;;4919469;29;19919;-82
2023/01/13 09:29:31;;;;;;;;;;;;;;;;;;4898374;29;19991;-82
2023/01/13 09:31:59;;;;;;;;;;;;;;;;;;4900307;29;19963;-82
2023/01/13 09:37:08;;;;;;;;;;;;;;;;;;4902433;29;19975;-82
2023/01/13 09:39:34;;;;;;;;;;;;;;;;;;4901663;29;19985;-82
2023/01/13 09:44:43;;;;;;;;;;;;;;;;;;4898216;29;19919;-82
2023/01/13 09:47:09;;;;;;;;;;;;;;;;;;4902627;29;20019;-82
2023/01/13 09:49:34;;;;;;;;;;;;;;;;;;4905282;29;19915;-81
2023/01/13 09:51:59;;;;;;;;;;;;;;;;;;4897009;29;19918;-82
2023/01/13 09:54:49;;;;;;;;;;;;;;;;;;4898084;29;19975;-81
2023/01/13 09:57:15;;;;;;;;;;;;;;;;;;4897820;29;20014;-80
2023/01/13 09:59:40;;;;;;;;;;;;;;;;;;4897795;29;20322;-82
2023/01/13 10:02:05;;;;;;;;;;;;;;;;;;4929335;29;19915;-81
2023/01/13 10:04:30;;;;;;;;;;;;;;;;;;4898278;29;19915;-80
2023/01/13 10:06:56;;;;;;;;;;;;;;;;;;4898441;29;20014;-82
2023/01/13 10:09:21;;;;;;;;;;;;;;;;;;4898634;29;20310;-81
2023/01/13 10:14:35;;;;;;;;;;;;;;;;;;4889083;29;19915;-80
2023/01/13 10:17:00;;;;;;;;;;;;;;;;;;4876391;29;19918;-81
2023/01/13 10:19:27;;;;;;;;;;;;;;;;;;4899163;29;19915;-81
2023/01/13 10:21:52;;;;;;;;;;;;;;;;;;4898318;29;19911;-82
2023/01/13 10:24:18;;;;;;;;;;;;;;;;;;4913362;29;19923;-82
2023/01/13 10:26:43;;;;;;;;;;;;;;;;;;4896439;29;19912;-80
2023/01/13 10:29:08;;;;;;;;;;;;;;;;;;4895510;29;19940;-82
2023/01/13 10:31:36;;;;;;;;;;;;;;;;;;4897040;29;20025;-82
2023/01/13 10:34:02;;;;;;;;;;;;;;;;;;4896159;29;20010;-82
2023/01/13 10:36:28;;;;;;;;;;;;;;;;;;4896406;29;20343;-82
2023/01/13 10:38:53;;;;;;;;;;;;;;;;;;4897396;29;20005;-82
2023/01/13 10:41:18;;;;;;;;;;;;;;;;;;4896860;29;19915;-82
2023/01/13 10:43:44;;;;;;;;;;;;;;;;;;4896899;29;20432;-82
2023/01/13 10:46:09;;;;;;;;;;;;;;;;;;4896039;29;19915;-82
2023/01/13 10:48:34;;;;;;;;;;;;;;;;;;4897123;29;19922;-82
2023/01/13 10:51:00;;;;;;;;;;;;;;;;;;4896379;29;19911;-82
2023/01/13 10:53:25;;;;;;;;;;;;;;;;;;4898466;29;19954;-81
2023/01/13 10:55:50;;;;;;;;;;;;;;;;;;4894793;29;19911;-81
2023/01/13 10:58:16;;;;;;;;;;;;;;;;;;4896153;29;19923;-82
2023/01/13 11:00:41;;;;;;;;;;;;;;;;;;4904080;29;19918;-82
2023/01/13 11:03:06;;;;;;;;;;;;;;;;;;4896633;29;19987;-81
2023/01/13 11:05:32;;;;;;;;;;;;;;;;;;4895038;29;20018;-82
2023/01/13 11:07:57;;;;;;;;;;;;;;;;;;4879799;29;20427;-81
2023/01/13 11:10:22;;;;;;;;;;;;;;;;;;4897381;29;20013;-82
2023/01/13 11:13:33;;;;;;;12.77;7.28;;;;;;;;;;5061723;27;20477;-81
2023/01/13 11:16:06;;;;;;;12.02;6.80;;;;;;;;;;5032998;28;20025;-81
2023/01/13 11:18:40;;;;;;;12.73;7.60;;;;;;;;;;5030742;28;20488;-81
2023/01/13 11:21:07;;;;;;;11.50;7.05;;;;;;;;;;5047770;28;20033;-81
2023/01/13 11:23:39;;;;;;;14.48;7.57;;;;;;;;;;5054547;28;20032;-81
2023/01/13 11:26:20;;;;;;;15.60;7.38;;;;;;;;;;5048461;28;20036;-82
2023/01/13 11:28:50;;;;;;;11.15;6.45;;;;;;;;;;5040613;28;20025;-82
2023/01/13 11:31:23;;;;;;;14.63;7.45;;;;;;;;;;5043965;28;20091;-82
2023/01/13 11:33:51;;;;;;;11.20;6.80;;;;;;;;;;5049749;28;20029;-81
2023/01/13 11:36:19;;;;;;;12.32;7.20;;;;;;;;;;5047298;28;20132;-82
2023/01/13 11:38:54;;;;;;;13.98;7.78;;;;;;;;;;5030102;28;20098;-81
2023/01/13 11:41:39;;;;;;;13.25;7.55;;;;;;;;;;5063143;28;20029;-82
2023/01/13 11:44:04;;;;;;;14.40;8.10;;;;;;;;;;5051327;28;20037;-81
2023/01/13 11:46:31;;;;;;;15.80;8.27;;;;;;;;;;5046950;28;20040;-82
2023/01/13 11:48:57;;;;;;;16.20;7.18;;;;;;;;;;5048008;28;20025;-82
2023/01/13 11:51:22;;;;;;;12.73;7.65;;;;;;;;;;5046734;28;20040;-81
2023/01/13 11:53:51;;;;;;;10.30;6.35;;;;;;;;;;5063219;28;20040;-81
2023/01/13 11:56:27;;;;;;;16.15;8.23;;;;;;;;;;5030635;28;20036;-82
2023/01/13 11:59:18;;;;;;;12.18;7.38;;;;;;;;;;5050148;28;20465;-82
2023/01/13 12:01:44;;;;;;;15.23;7.40;;;;;;;;;;5032107;28;20041;-80
2023/01/13 12:04:22;;;;;;;14.77;7.80;;;;;;;;;;5047763;28;20035;-81
2023/01/13 12:06:51;;;;;;;14.70;7.68;;;;;;;;;;5044843;28;20029;-81
2023/01/13 12:09:27;;;;;;;15.70;7.95;;;;;;;;;;5043211;28;20467;-81
2023/01/13 12:14:56;;;;;;;17.05;7.32;;;;;;;;;;5057532;28;20032;-80
2023/01/13 12:17:25;;;;;;;15.07;7.72;;;;;;;;;;5047253;28;20124;-80
2023/01/13 12:19:50;;;;;;;18.90;8.90;;;;;;;;;;5029578;28;20078;-81
2023/01/13 12:22:22;;;;;;;13.45;7.78;;;;;;;;;;5047266;28;20412;-83
2023/01/13 12:24:58;;;;;;;13.48;7.30;;;;;;;;;;5032868;28;20041;-81
2023/01/13 12:27:30;;;;;;;14.63;8.30;;;;;;;;;;5032984;28;20037;-82
2023/01/13 12:29:58;;;;;;;16.10;8.43;;;;;;;;;;5037248;28;20546;-80
2023/01/13 12:32:34;;;;;;;14.85;8.50;;;;;;;;;;4990666;28;20030;-82
2023/01/13 12:35:19;;;;;;;16.27;8.77;;;;;;;;;;5015353;28;20083;-81
2023/01/13 12:38:03;;;;;;;17.10;8.15;;;;;;;;;;5045409;28;20280;-82
2023/01/13 12:40:45;;;;;;;14.25;8.10;;;;;;;;;;5032064;28;20038;-82
2023/01/13 12:46:17;;;;;;;17.25;8.77;;;;;;;;;;5022175;28;20087;-82
2023/01/13 12:49:01;;;;;;;16.85;8.52;;;;;;;;;;5033318;28;20033;-82
2023/01/13 12:51:45;;;;;;;19.08;10.05;;;;;;;;;;5031973;28;20132;-82
2023/01/13 12:54:29;;;;;;;16.88;9.18;;;;;;;;;;5048566;28;20099;-82
2023/01/13 12:56:55;;;;;;;14.23;8.35;;;;;;;;;;5032850;28;20083;-82
2023/01/13 12:59:20;;;;;;;20.73;9.77;;;;;;;;;;5032071;28;20029;-81
2023/01/13 13:01:46;;;;;;;17.42;9.43;;;;;;;;;;5033052;28;20065;-82
2023/01/13 13:04:12;;;;;;;21.33;9.93;;;;;;;;;;5015154;28;20041;-81
2023/01/13 13:06:39;;;;;;;18.95;9.70;;;;;;;;;;5032048;28;20076;-82
2023/01/13 13:09:25;;;;;;;19.00;9.02;;;;;;;;;;5031687;28;20037;-82
2023/01/13 13:14:37;;;;;;;18.48;9.13;;;;;;;;;;5040305;28;20032;-81
2023/01/13 13:17:18;;;;;;;21.27;10.60;;;;;;;;;;5043168;28;20045;-81
2023/01/13 13:19:44;;;;;;;19.60;9.55;;;;;;;;;;5032025;28;20033;-82
2023/01/13 13:22:15;;;;;;;19.25;10.63;;;;;;;;;;5031988;28;20116;-81
2023/01/13 13:24:47;;;;;;;18.98;10.07;;;;;;;;;;5044232;28;20496;-82
2023/01/13 13:27:21;;;;;;;21.38;11.07;;;;;;;;;;5038791;28;20446;-82
2023/01/13 13:30:00;;;;;;;20.55;10.73;;;;;;;;;;5031763;28;20134;-82
2023/01/13 13:32:29;;;;;;;21.30;9.38;;;;;;;;;;5031475;28;20521;-80
2023/01/13 13:34:54;;;;;;;21.55;10.13;;;;;;;;;;5030619;28;20391;-81
2023/01/13 13:46:45;;;;;;;23.80;11.23;;;;;;;;;;5035536;28;20029;-82
2023/01/13 13:48:38;;;;;;;19.85;10.10;;;;;;;;;;5033109;28;20043;-83
2023/01/13 13:51:19;;;;;;;18.85;9.80;;;;;;;;;;5031106;28;20103;-82
2023/01/13 13:53:44;;;;;;;18.13;9.82;;;;;;;;;;5039468;28;20116;-81
2023/01/13 13:56:26;;;;;;;25.70;12.63;;;;;;;;;;5022061;28;20124;-81
2023/01/13 13:58:51;;;;;;;21.95;11.48;;;;;;;;;;5027985;28;20087;-82
2023/01/13 14:01:24;;;;;;;21.65;10.68;;;;;;;;;;5013458;28;20051;-81
2023/01/13 14:04:09;;;;;;;18.67;10.02;;;;;;;;;;5036657;28;20037;-81
2023/01/13 14:06:34;;;;;;;21.17;10.95;;;;;;;;;;5031758;28;20330;-81
2023/01/13 14:09:00;;;;;;;18.05;10.43;;;;;;;;;;4995226;28;20030;-80
2023/01/13 14:11:26;;;;;;;18.23;10.70;;;;;;;;;;5029301;28;20069;-81
2023/01/13 14:14:05;;;;;;;17.27;9.77;;;;;;;;;;5023353;28;20029;-82
2023/01/13 14:16:31;;;;;;;15.85;8.73;;;;;;;;;;5025809;28;20036;-81
2023/01/13 14:18:56;;;;;;;;;;;;;;;;;;5031933;28;20033;-81
2023/01/13 14:21:24;;;;;;;19.52;10.43;;;;;;;;;;5031629;28;20450;-81
2023/01/13 14:24:02;;;;;;;18.45;10.02;;;;;;;;;;5031742;28;20079;-81
2023/01/13 14:26:28;;;;;;;22.13;11.90;;;;;;;;;;5013952;28;20037;-81
2023/01/13 14:28:54;;;;;;;19.55;9.85;;;;;;;;;;5022148;28;20082;-81
2023/01/13 14:31:19;;;;;;;16.38;9.75;;;;;;;;;;5030859;28;20489;-83
2023/01/13 14:33:46;;;;;;;20.23;11.15;;;;;;;;;;5030602;28;20033;-81
2023/01/13 14:36:21;;;;;;;19.42;10.20;;;;;;;;;;5033431;28;20518;-80
2023/01/13 14:39:13;;;;;;;19.63;10.18;;;;;;;;;;5025274;28;20467;-80
2023/01/13 14:41:42;;;;;;;18.85;9.80;;;;;;;;;;5030277;28;20044;-82
2023/01/13 14:44:17;;;;;;;22.25;10.95;;;;;;;;;;5047088;28;20484;-81
2023/01/13 14:46:43;;;;;;;15.82;9.35;;;;;;;;;;5046765;28;20128;-83
2023/01/13 14:49:18;;;;;;;16.25;9.38;;;;;;;;;;5031016;28;20104;-80
2023/01/13 14:51:43;;;;;;;16.20;9.20;;;;;;;;;;5030274;28;20091;-82
2023/01/13 14:54:28;;;;;;;17.92;9.23;;;;;;;;;;5031958;28;20034;-81
2023/01/13 14:57:05;;;;;;;17.38;9.93;;;;;;;;;;5031730;28;20413;-82
2023/01/13 14:59:35;;;;;;;16.45;9.40;;;;;;;;;;5005185;28;20044;-81
2023/01/13 15:02:01;;;;;;;18.50;9.55;;;;;;;;;;5024630;28;20512;-83
2023/01/13 15:04:26;;;;;;;;;;;;;;;;;;5026970;28;20404;-84
2023/01/13 15:06:53;;;;;;;19.33;9.55;;;;;;;;;;5028575;28;19920;-83
2023/01/13 15:09:22;;;;;;;20.15;10.07;;;;;;;;;;5015931;28;20045;-83
2023/01/13 15:11:47;;;;;;;18.88;10.32;;;;;;;;;;5027055;28;20169;-83
2023/01/13 15:14:14;;;;;;;16.75;9.65;;;;;;;;;;5031327;28;20073;-82
2023/01/13 15:16:40;;;;;;;18.77;9.82;;;;;;;;;;5030257;28;20060;-82
2023/01/13 15:19:07;;;;;;;16.63;9.25;;;;;;;;;;5031508;28;20133;-83
2023/01/13 15:21:33;;;;;;;15.48;9.10;;;;;;;;;;5014905;28;20128;-83
2023/01/13 15:23:58;;;;;;;19.77;9.55;;;;;;;;;;5028687;28;20109;-82
2023/01/13 15:26:25;;;;;;;17.90;10.18;;;;;;;;;;5031334;28;20468;-83
2023/01/13 15:28:51;;;;;;;16.92;8.88;;;;;;;;;;5028025;28;20041;-83
2023/01/13 15:31:16;;;;;;;18.15;9.80;;;;;;;;;;5013810;28;20036;-82
2023/01/13 15:33:42;;;;;;;18.35;9.77;;;;;;;;;;5030063;28;20485;-83
2023/01/13 15:36:26;;;;;;;17.77;9.18;;;;;;;;;;5032042;28;20067;-82
2023/01/13 15:38:52;;;;;;;16.90;8.98;;;;;;;;;;5028347;28;20057;-82
2023/01/13 15:46:36;;;;;;;18.80;9.85;;;;;;;;;;5029329;28;20060;-82
2023/01/13 15:46:47;;;;;;;15.18;9.02;;;;;;;;;;5029822;28;20029;-82
2023/01/13 15:49:20;;;;;;;17.88;8.75;;;;;;;;;;5014006;28;20112;-83
2023/01/13 15:51:47;;;;;;;16.42;8.77;;;;;;;;;;5032768;28;20037;-82
2023/01/13 15:54:12;;;;;;;;;;;;;;;;;;5027172;28;20079;-82
2023/01/13 15:56:38;;;;;;;16.98;9.50;;;;;;;;;;5031127;28;19913;-82
2023/01/13 15:59:04;;;;;;;16.83;8.98;;;;;;;;;;5032232;28;20017;-83
2023/01/13 16:01:29;;;;;;;17.13;9.35;;;;;;;;;;5033968;28;20029;-82
2023/01/13 16:03:55;;;;;;;18.25;9.32;;;;;;;;;;5034392;28;20100;-83
2023/01/13 16:06:23;;;;;;;15.82;8.77;;;;;;;;;;5034022;28;20025;-82
2023/01/13 16:08:48;;;;;;;19.05;10.30;;;;;;;;;;5034168;28;20021;-82
2023/01/13 16:11:14;;;;;;;16.77;9.90;;;;;;;;;;5034745;28;20041;-82
2023/01/13 16:13:40;;;;;;;17.90;9.15;;;;;;;;;;5032909;28;20029;-82
2023/01/13 16:16:16;;;;;;;18.65;9.73;;;;;;;;;;5030861;28;20026;-81
2023/01/13 16:18:42;;;;;;;17.08;10.18;;;;;;;;;;5031401;28;20037;-81
2023/01/13 16:21:09;;;;;;;20.60;10.85;;;;;;;;;;5034977;28;20025;-82
2023/01/13 16:23:34;;;;;;;20.42;10.18;;;;;;;;;;5031229;28;20452;-83
2023/01/13 16:26:00;;;;;;;16.42;9.85;;;;;;;;;;5035634;28;20029;-82
2023/01/13 16:28:29;;;;;;;20.05;9.52;;;;;;;;;;5033724;28;20379;-82
2023/01/13 16:30:54;;;;;;;17.00;10.20;;;;;;;;;;5034290;28;20024;-81
2023/01/13 16:33:20;;;;;;;21.20;9.93;;;;;;;;;;5036497;28;20037;-81
2023/01/13 16:35:45;;;;;;;17.27;8.88;;;;;;;;;;5033867;28;20036;-83
2023/01/13 16:38:15;;;;;;;17.55;9.75;;;;;;;;;;5050150;28;20040;-84
2023/01/13 16:40:41;;;;;;;18.05;9.52;;;;;;;;;;5031743;28;20076;-82
2023/01/13 16:43:07;;;;;;;22.15;10.60;;;;;;;;;;5033073;28;20030;-83
2023/01/13 16:45:33;;;;;;;14.57;8.23;;;;;;;;;;5049263;28;20121;-83
2023/01/13 16:47:59;;;;;;;14.95;8.90;;;;;;;;;;5034470;28;20124;-83
2023/01/13 16:50:27;;;;;;;13.18;8.52;;;;;;;;;;5032885;28;20076;-82
2023/01/13 16:52:53;;;;;;;20.13;9.95;;;;;;;;;;5032309;28;20038;-82
2023/01/13 16:55:18;;;;;;;17.77;8.43;;;;;;;;;;5033491;28;20056;-83
2023/01/13 16:57:44;;;;;;;19.75;10.00;;;;;;;;;;5032532;28;20041;-83
2023/01/13 17:00:10;;;;;;;18.42;9.73;;;;;;;;;;5036474;28;20469;-82
2023/01/13 17:02:35;;;;;;;;;;;;;;;;;;5035385;28;20078;-81